createdAt,value
2022-09-09T00:03:25.118Z,1.20
2022-09-09T00:08:24.982Z,4.30
2022-09-09T00:13:24.761Z,2.40
2022-09-09T00:18:24.713Z,5.10
2022-09-09T00:23:24.667Z,6.40
2022-09-09T00:28:24.729Z,5.80
2022-09-09T00:33:29.178Z,4.10
2022-09-09T00:38:24.684Z,2.70
2022-09-09T00:43:25.568Z,2.80
2022-09-09T00:48:24.474Z,5.80
2022-09-09T00:53:24.353Z,3.40
2022-09-09T00:58:24.234Z,8.00
2022-09-09T01:03:24.195Z,4.40
2022-09-09T01:08:32.062Z,4.00
2022-09-09T01:13:24.164Z,4.20
2022-09-09T01:18:24.159Z,6.50
2022-09-09T01:23:23.985Z,4.40
2022-09-09T01:28:24.116Z,9.40
2022-09-09T01:33:23.886Z,8.10
2022-09-09T01:38:23.836Z,4.30
2022-09-09T01:43:23.762Z,10.30
2022-09-09T01:48:27.136Z,6.40
2022-09-09T01:53:23.819Z,16.20
2022-09-09T01:58:23.751Z,7.10
2022-09-09T02:03:23.696Z,5.10
2022-09-09T02:08:23.567Z,6.10
2022-09-09T02:13:23.455Z,19.00
2022-09-09T02:18:23.372Z,16.00
2022-09-09T02:23:23.411Z,23.50
2022-09-09T02:28:23.396Z,14.40
2022-09-09T02:33:23.342Z,21.60
2022-09-09T02:38:23.285Z,15.70
2022-09-09T02:43:25.261Z,17.70
2022-09-09T02:48:23.250Z,21.40
2022-09-09T02:53:23.026Z,25.70
2022-09-09T02:58:22.962Z,20.50
2022-09-09T03:03:32.781Z,11.10
2022-09-09T03:08:22.905Z,11.10
2022-09-09T03:13:22.851Z,4.20
2022-09-09T03:18:22.795Z,6.20
2022-09-09T03:23:22.720Z,10.40
2022-09-09T03:28:22.642Z,4.90
2022-09-09T03:33:22.690Z,9.20
2022-09-09T03:38:22.601Z,8.80
2022-09-09T03:43:22.482Z,6.90
2022-09-09T03:48:22.393Z,8.80
2022-09-09T03:53:22.361Z,7.30
2022-09-09T03:58:22.298Z,6.60
2022-09-09T04:03:25.910Z,9.70
2022-09-09T04:08:23.243Z,9.20
2022-09-09T04:13:22.203Z,16.40
2022-09-09T04:18:30.999Z,14.00
2022-09-09T04:23:22.045Z,4.60
2022-09-09T04:28:22.038Z,6.60
2022-09-09T04:33:21.997Z,8.00
2022-09-09T04:38:21.856Z,11.70
2022-09-09T04:43:21.836Z,17.40
2022-09-09T04:48:21.754Z,11.20
2022-09-09T04:53:21.714Z,9.30
2022-09-09T04:58:21.756Z,14.50
2022-09-09T05:03:21.706Z,14.10
2022-09-09T05:08:21.536Z,16.20
2022-09-09T05:13:21.648Z,18.20
2022-09-09T05:18:21.619Z,15.90
2022-09-09T05:23:21.513Z,20.10
2022-09-09T05:28:21.311Z,11.80
2022-09-09T05:33:21.275Z,17.50
2022-09-09T05:38:23.755Z,18.70
2022-09-09T05:43:21.153Z,18.90
2022-09-09T05:48:21.228Z,18.50
2022-09-09T05:53:21.114Z,21.70
2022-09-09T05:58:21.124Z,16.50
2022-09-09T06:03:30.998Z,19.90
2022-09-09T06:08:20.875Z,12.80
2022-09-09T06:13:32.791Z,12.10
2022-09-09T06:18:20.774Z,12.60
2022-09-09T06:23:20.709Z,17.50
2022-09-09T06:28:20.665Z,9.60
2022-09-09T06:33:20.601Z,17.00
2022-09-09T06:38:20.663Z,13.10
2022-09-09T06:43:20.508Z,8.90
2022-09-09T06:48:20.458Z,11.30
2022-09-09T06:53:20.404Z,10.70
2022-09-09T06:58:20.455Z,7.20
2022-09-09T07:03:21.332Z,13.70
2022-09-09T07:08:20.228Z,10.60
2022-09-09T07:13:20.653Z,11.60
2022-09-09T07:18:20.116Z,8.60
2022-09-09T07:23:20.069Z,11.80
2022-09-09T07:28:20.033Z,7.40
2022-09-09T07:33:20.081Z,7.90
2022-09-09T07:38:19.992Z,6.00
2022-09-09T07:43:19.868Z,7.20
2022-09-09T07:48:19.796Z,10.70
2022-09-09T07:53:19.758Z,8.90
2022-09-09T07:58:19.752Z,7.40
2022-09-09T08:03:20.276Z,7.20
2022-09-09T08:08:19.604Z,8.30
2022-09-09T08:13:19.565Z,10.00
2022-09-09T08:18:19.576Z,7.50
2022-09-09T08:23:19.882Z,11.80
2022-09-09T08:28:19.461Z,10.70
2022-09-09T08:33:19.553Z,13.20
2022-09-09T08:38:20.367Z,8.10
2022-09-09T08:43:19.885Z,13.90
2022-09-09T08:48:19.300Z,9.90
2022-09-09T08:53:19.267Z,9.10
2022-09-09T08:58:19.148Z,11.70
2022-09-09T09:03:19.160Z,10.20
2022-09-09T09:08:19.082Z,9.60
2022-09-09T09:13:18.963Z,10.90
2022-09-09T09:18:18.913Z,10.00
2022-09-09T09:23:18.847Z,7.00
2022-09-09T09:28:18.824Z,10.10
2022-09-09T09:33:19.295Z,8.40
2022-09-09T09:43:19.624Z,10.90
2022-09-09T09:48:18.646Z,8.30
2022-09-09T09:53:18.465Z,7.90
2022-09-09T09:58:18.901Z,8.60
2022-09-09T10:03:18.364Z,6.90
2022-09-09T10:08:18.418Z,13.80
2022-09-09T10:13:18.487Z,10.10
2022-09-09T10:18:18.304Z,5.60
2022-09-09T10:23:18.208Z,7.30
2022-09-09T10:28:18.142Z,8.10
2022-09-09T10:33:18.173Z,5.50
2022-09-09T10:38:19.236Z,8.40
2022-09-09T10:43:18.962Z,7.00
2022-09-09T10:48:17.977Z,6.30
2022-09-09T10:53:17.857Z,8.00
2022-09-09T10:58:17.768Z,5.10
2022-09-09T11:03:17.852Z,4.80
2022-09-09T11:08:18.900Z,4.90
2022-09-09T11:13:17.600Z,5.60
2022-09-09T11:18:19.711Z,4.70
2022-09-09T11:23:17.561Z,5.40
2022-09-09T11:28:17.509Z,4.70
2022-09-09T11:33:17.618Z,6.00
2022-09-09T11:38:17.392Z,4.90
2022-09-09T11:43:17.399Z,5.40
2022-09-09T11:48:17.356Z,6.90
2022-09-09T11:53:17.184Z,5.80
2022-09-09T11:58:17.189Z,6.50
2022-09-09T12:03:17.205Z,4.40
2022-09-09T12:08:17.157Z,5.50
2022-09-09T12:13:17.411Z,7.20
2022-09-09T12:18:17.050Z,7.20
2022-09-09T12:23:16.850Z,8.30
2022-09-09T12:28:16.862Z,8.00
2022-09-09T12:33:16.739Z,5.10
2022-09-09T12:38:16.819Z,5.30
2022-09-09T12:43:20.215Z,5.80
2022-09-09T12:48:18.312Z,7.70
2022-09-09T12:53:16.524Z,5.30
2022-09-09T12:58:16.498Z,5.40
2022-09-09T13:03:16.403Z,5.30
2022-09-09T13:08:16.355Z,7.20
2022-09-09T13:13:16.308Z,7.30
2022-09-09T13:18:16.314Z,5.70
2022-09-09T13:23:16.265Z,6.40
2022-09-09T13:28:16.267Z,6.40
2022-09-09T13:33:16.109Z,7.00
2022-09-09T13:38:16.040Z,11.60
2022-09-09T13:43:15.979Z,9.60
2022-09-09T13:48:16.119Z,9.80
2022-09-09T13:53:15.878Z,7.70
2022-09-09T13:58:19.149Z,3.60
2022-09-09T14:03:15.783Z,6.40
2022-09-09T14:08:15.708Z,6.20
2022-09-09T14:13:15.665Z,6.80
2022-09-09T14:18:15.640Z,3.80
2022-09-09T14:23:15.565Z,6.50
2022-09-09T14:28:15.572Z,7.90
2022-09-09T14:33:15.514Z,9.60
2022-09-09T14:38:19.059Z,15.00
2022-09-09T14:43:15.408Z,8.30
2022-09-09T14:48:15.288Z,14.00
2022-09-09T14:53:15.235Z,10.70
2022-09-09T14:58:15.178Z,8.90
2022-09-09T15:03:15.165Z,10.70
2022-09-09T15:08:23.977Z,7.70
2022-09-09T15:13:15.010Z,10.30
2022-09-09T15:18:15.089Z,5.70
2022-09-09T15:23:15.763Z,6.90
2022-09-09T15:28:15.665Z,5.10
2022-09-09T15:33:16.294Z,5.30
2022-09-09T15:44:26.359Z,4.10
2022-09-09T15:49:26.901Z,4.00
2022-09-09T15:54:26.291Z,1.80
2022-09-09T15:59:34.453Z,3.70
2022-09-09T16:04:28.475Z,1.90
2022-09-09T16:09:26.406Z,12.10
2022-09-09T16:14:26.572Z,3.20
2022-09-09T16:19:26.940Z,4.10
2022-09-09T16:24:40.448Z,5.80
2022-09-09T16:29:25.946Z,4.00
2022-09-09T16:34:27.792Z,8.60
2022-09-09T16:39:25.651Z,4.60
2022-09-09T16:44:25.633Z,6.20
2022-09-09T16:49:25.650Z,4.30
2022-09-09T16:54:26.580Z,6.30
2022-09-09T16:59:25.433Z,9.70
2022-09-09T17:04:25.591Z,5.20
2022-09-09T17:09:25.432Z,4.00
2022-09-09T17:14:25.316Z,3.50
2022-09-09T17:19:25.215Z,6.60
2022-09-09T17:24:25.162Z,6.90
2022-09-09T17:29:25.099Z,4.60
2022-09-09T17:34:25.085Z,12.50
2022-09-09T17:39:25.102Z,7.70
2022-09-09T17:44:24.993Z,8.90
2022-09-09T17:49:25.382Z,5.90
2022-09-09T17:54:24.893Z,9.00
2022-09-09T17:59:25.731Z,5.40
2022-09-09T18:04:24.777Z,5.00
2022-09-09T18:09:24.923Z,11.70
2022-09-09T18:14:26.773Z,8.00
2022-09-09T18:19:36.231Z,11.50
2022-09-09T18:24:34.502Z,13.30
2022-09-09T18:29:24.468Z,8.20
2022-09-09T18:34:24.383Z,6.10
2022-09-09T18:39:25.012Z,6.50
2022-09-09T18:44:25.364Z,7.00
2022-09-09T18:49:25.903Z,6.40
2022-09-09T18:54:28.258Z,6.10
2022-09-09T18:59:24.710Z,6.50
2022-09-09T19:04:24.077Z,6.10
2022-09-09T19:09:24.076Z,7.50
2022-09-09T19:14:23.992Z,5.40
2022-09-09T19:19:23.887Z,6.40
2022-09-09T19:24:23.918Z,11.80
2022-09-09T19:29:25.971Z,11.80
2022-09-09T19:34:23.742Z,7.80
2022-09-09T19:39:23.597Z,8.20
2022-09-09T19:44:23.604Z,7.80
2022-09-09T19:49:23.539Z,6.30
2022-09-09T19:54:23.544Z,8.50
2022-09-09T19:59:23.460Z,10.10
2022-09-09T20:04:23.416Z,9.50
2022-09-09T20:09:23.329Z,11.70
2022-09-09T20:14:23.255Z,12.00
2022-09-09T20:19:23.192Z,7.70
2022-09-09T20:24:23.221Z,11.60
2022-09-09T20:29:23.151Z,10.50
2022-09-09T20:34:23.114Z,8.20
2022-09-09T20:39:23.000Z,10.10
2022-09-09T20:44:22.931Z,9.70
2022-09-09T20:49:22.877Z,9.50
2022-09-09T20:54:22.847Z,9.40
2022-09-09T20:59:22.781Z,12.40
2022-09-09T21:04:22.828Z,11.90
2022-09-09T21:09:22.761Z,13.00
2022-09-09T21:14:22.671Z,10.30
2022-09-09T21:19:31.459Z,8.50
2022-09-09T21:24:22.448Z,8.20
2022-09-09T21:29:22.457Z,10.90
2022-09-09T21:34:22.325Z,7.40
2022-09-09T21:39:23.313Z,11.90
2022-09-09T21:44:22.267Z,9.80
2022-09-09T21:49:22.215Z,13.70
2022-09-09T21:54:22.144Z,10.90
2022-09-09T21:59:22.079Z,9.20
2022-09-09T22:04:22.037Z,19.80
2022-09-09T22:09:21.935Z,9.50
2022-09-09T22:14:21.884Z,13.60
2022-09-09T22:19:21.868Z,12.10
2022-09-09T22:24:21.896Z,17.90
2022-09-09T22:29:21.838Z,11.70
2022-09-09T22:34:21.763Z,9.30
2022-09-09T22:39:21.727Z,15.10
2022-09-09T22:44:21.551Z,11.90
2022-09-09T22:49:21.503Z,16.50
2022-09-09T22:54:21.547Z,9.60
2022-09-09T22:59:21.402Z,16.30
2022-09-09T23:04:21.402Z,12.70
2022-09-09T23:09:21.281Z,13.00
2022-09-09T23:14:21.222Z,16.20
2022-09-09T23:19:21.162Z,12.40
2022-09-09T23:24:21.175Z,17.70
2022-09-09T23:29:21.117Z,13.40
2022-09-09T23:34:21.136Z,17.90
2022-09-09T23:39:20.982Z,13.90
2022-09-09T23:44:20.901Z,11.00
2022-09-09T23:49:20.844Z,10.00
2022-09-09T23:54:20.773Z,10.30
2022-09-09T23:59:20.740Z,15.40
